sensor_id;sensor_type;location;lat;lon;timestamp;pressure;altitude;pressure_sealevel;temperature;humidity
6198;BME280;3132;42.622;23.328;2022-11-18T00:01:24;91821.84;;;9.02;100.00
6198;BME280;3132;42.622;23.328;2022-11-18T00:03:50;91839.78;;;9.03;100.00
6198;BME280;3132;42.622;23.328;2022-11-18T00:06:18;91847.28;;;8.91;100.00
6198;BME280;3132;42.622;23.328;2022-11-18T00:08:44;91846.91;;;8.98;100.00
6198;BME280;3132;42.622;23.328;2022-11-18T00:11:12;91839.25;;;8.88;100.00
6198;BME280;3132;42.622;23.328;2022-11-18T00:13:58;91828.97;;;8.96;100.00
6198;BME280;3132;42.622;23.328;2022-11-18T00:16:42;91824.78;;;8.82;100.00
6198;BME280;3132;42.622;23.328;2022-11-18T00:19:08;91845.84;;;8.99;100.00
6198;BME280;3132;42.622;23.328;2022-11-18T00:21:33;91836.38;;;9.03;100.00
6198;BME280;3132;42.622;23.328;2022-11-18T00:23:58;91829.66;;;9.02;100.00
6198;BME280;3132;42.622;23.328;2022-11-18T00:26:24;91831.19;;;9.03;100.00
6198;BME280;3132;42.622;23.328;2022-11-18T00:28:49;91821.47;;;8.95;100.00
6198;BME280;3132;42.622;23.328;2022-11-18T00:31:14;91825.09;;;8.94;100.00
6198;BME280;3132;42.622;23.328;2022-11-18T00:33:40;91832.81;;;8.99;100.00
6198;BME280;3132;42.622;23.328;2022-11-18T00:36:09;91826.84;;;8.98;100.00
6198;BME280;3132;42.622;23.328;2022-11-18T00:38:35;91826.94;;;8.93;100.00
6198;BME280;3132;42.622;23.328;2022-11-18T00:41:08;91823.47;;;8.98;100.00
6198;BME280;3132;42.622;23.328;2022-11-18T00:43:34;91827.78;;;8.89;100.00
6198;BME280;3132;42.622;23.328;2022-11-18T00:46:00;91812.53;;;8.69;100.00
6198;BME280;3132;42.622;23.328;2022-11-18T00:48:26;91829.13;;;8.73;100.00
6198;BME280;3132;42.622;23.328;2022-11-18T00:50:54;91821.78;;;8.75;100.00
6198;BME280;3132;42.622;23.328;2022-11-18T00:53:20;91831.06;;;8.81;100.00
6198;BME280;3132;42.622;23.328;2022-11-18T00:55:46;91826.97;;;8.75;100.00
6198;BME280;3132;42.622;23.328;2022-11-18T00:58:11;91817.72;;;8.69;100.00
6198;BME280;3132;42.622;23.328;2022-11-18T01:00:48;91833.75;;;8.76;100.00
6198;BME280;3132;42.622;23.328;2022-11-18T01:03:15;91831.22;;;8.71;100.00
6198;BME280;3132;42.622;23.328;2022-11-18T01:05:40;91825.63;;;8.64;100.00
6198;BME280;3132;42.622;23.328;2022-11-18T01:08:08;91831.88;;;8.63;100.00
6198;BME280;3132;42.622;23.328;2022-11-18T01:10:35;91822.94;;;8.69;100.00
6198;BME280;3132;42.622;23.328;2022-11-18T01:13:01;91809.84;;;8.74;100.00
6198;BME280;3132;42.622;23.328;2022-11-18T01:15:53;91832.75;;;8.72;100.00
6198;BME280;3132;42.622;23.328;2022-11-18T01:18:21;91828.94;;;8.83;100.00
6198;BME280;3132;42.622;23.328;2022-11-18T01:20:47;91817.28;;;8.80;100.00
6198;BME280;3132;42.622;23.328;2022-11-18T01:23:14;91817.94;;;8.86;100.00
6198;BME280;3132;42.622;23.328;2022-11-18T01:25:41;91815.63;;;8.71;100.00
6198;BME280;3132;42.622;23.328;2022-11-18T01:28:08;91830.31;;;8.94;100.00
6198;BME280;3132;42.622;23.328;2022-11-18T01:30:35;91831.66;;;8.91;100.00
6198;BME280;3132;42.622;23.328;2022-11-18T01:33:02;91827.25;;;8.92;100.00
6198;BME280;3132;42.622;23.328;2022-11-18T01:35:29;91807.72;;;8.62;100.00
6198;BME280;3132;42.622;23.328;2022-11-18T01:37:58;91838.66;;;8.64;100.00
6198;BME280;3132;42.622;23.328;2022-11-18T01:40:25;91836.78;;;8.64;100.00
6198;BME280;3132;42.622;23.328;2022-11-18T01:42:50;91834.63;;;8.71;100.00
6198;BME280;3132;42.622;23.328;2022-11-18T01:48:16;91829.06;;;8.59;100.00
6198;BME280;3132;42.622;23.328;2022-11-18T01:50:48;91812.84;;;8.49;100.00
6198;BME280;3132;42.622;23.328;2022-11-18T01:53:21;91825.00;;;8.53;100.00
6198;BME280;3132;42.622;23.328;2022-11-18T01:55:49;91833.09;;;8.52;100.00
6198;BME280;3132;42.622;23.328;2022-11-18T01:58:29;91824.63;;;8.28;100.00
6198;BME280;3132;42.622;23.328;2022-11-18T02:00:56;91812.81;;;8.16;100.00
6198;BME280;3132;42.622;23.328;2022-11-18T02:03:23;91826.66;;;8.31;100.00
6198;BME280;3132;42.622;23.328;2022-11-18T02:05:51;91827.63;;;8.35;100.00
6198;BME280;3132;42.622;23.328;2022-11-18T02:08:18;91805.22;;;8.20;100.00
6198;BME280;3132;42.622;23.328;2022-11-18T02:10:44;91824.00;;;8.36;100.00
6198;BME280;3132;42.622;23.328;2022-11-18T02:13:10;91823.72;;;8.37;100.00
6198;BME280;3132;42.622;23.328;2022-11-18T02:18:32;91821.50;;;8.44;100.00
6198;BME280;3132;42.622;23.328;2022-11-18T02:21:13;91830.31;;;8.30;100.00
6198;BME280;3132;42.622;23.328;2022-11-18T02:24:19;91820.06;;;8.19;100.00
6198;BME280;3132;42.622;23.328;2022-11-18T02:29:28;91811.72;;;8.23;100.00
6198;BME280;3132;42.622;23.328;2022-11-18T02:32:05;91822.72;;;8.14;100.00
6198;BME280;3132;42.622;23.328;2022-11-18T02:34:42;91819.50;;;8.23;100.00
6198;BME280;3132;42.622;23.328;2022-11-18T02:37:20;91811.75;;;8.17;100.00
6198;BME280;3132;42.622;23.328;2022-11-18T02:39:52;91801.69;;;8.11;100.00
6198;BME280;3132;42.622;23.328;2022-11-18T02:42:19;91809.22;;;8.12;100.00
6198;BME280;3132;42.622;23.328;2022-11-18T02:44:49;91814.69;;;8.11;100.00
6198;BME280;3132;42.622;23.328;2022-11-18T02:47:17;91813.06;;;8.01;100.00
6198;BME280;3132;42.622;23.328;2022-11-18T02:49:46;91816.69;;;8.00;100.00
6198;BME280;3132;42.622;23.328;2022-11-18T02:52:14;91808.81;;;8.05;100.00
6198;BME280;3132;42.622;23.328;2022-11-18T02:54:42;91817.97;;;8.03;100.00
6198;BME280;3132;42.622;23.328;2022-11-18T02:57:10;91801.09;;;8.00;100.00
6198;BME280;3132;42.622;23.328;2022-11-18T02:59:36;91823.16;;;8.22;100.00
6198;BME280;3132;42.622;23.328;2022-11-18T03:02:02;91821.13;;;8.18;100.00
6198;BME280;3132;42.622;23.328;2022-11-18T03:04:28;91811.53;;;8.14;100.00
6198;BME280;3132;42.622;23.328;2022-11-18T03:07:17;91819.50;;;8.23;100.00
6198;BME280;3132;42.622;23.328;2022-11-18T03:09:47;91822.44;;;8.16;100.00
6198;BME280;3132;42.622;23.328;2022-11-18T03:12:34;91805.09;;;8.11;100.00
6198;BME280;3132;42.622;23.328;2022-11-18T03:15:23;91810.06;;;8.08;100.00
6198;BME280;3132;42.622;23.328;2022-11-18T03:18:00;91816.72;;;8.14;100.00
6198;BME280;3132;42.622;23.328;2022-11-18T03:20:38;91812.84;;;7.98;100.00
6198;BME280;3132;42.622;23.328;2022-11-18T03:23:11;91813.06;;;8.01;100.00
6198;BME280;3132;42.622;23.328;2022-11-18T03:25:49;91811.53;;;8.14;100.00
6198;BME280;3132;42.622;23.328;2022-11-18T03:28:28;91809.22;;;8.12;100.00
6198;BME280;3132;42.622;23.328;2022-11-18T03:31:19;91816.25;;;8.12;100.00
6198;BME280;3132;42.622;23.328;2022-11-18T03:33:52;91815.09;;;8.55;100.00
6198;BME280;3132;42.622;23.328;2022-11-18T03:36:22;91812.84;;;8.49;100.00
6198;BME280;3132;42.622;23.328;2022-11-18T03:38:55;91804.03;;;8.63;100.00
6198;BME280;3132;42.622;23.328;2022-11-18T03:41:24;91805.75;;;8.54;100.00
6198;BME280;3132;42.622;23.328;2022-11-18T03:44:05;91802.63;;;8.39;100.00
6198;BME280;3132;42.622;23.328;2022-11-18T03:46:58;91811.47;;;8.38;100.00
6198;BME280;3132;42.622;23.328;2022-11-18T03:49:42;91795.84;;;8.24;100.00
6198;BME280;3132;42.622;23.328;2022-11-18T03:52:19;91797.28;;;8.30;100.00
6198;BME280;3132;42.622;23.328;2022-11-18T03:54:47;91805.88;;;8.31;100.00
6198;BME280;3132;42.622;23.328;2022-11-18T03:57:20;91801.63;;;8.16;100.00
6198;BME280;3132;42.622;23.328;2022-11-18T03:59:57;91790.28;;;8.12;100.00
6198;BME280;3132;42.622;23.328;2022-11-18T04:02:25;91795.75;;;8.10;100.00
6198;BME280;3132;42.622;23.328;2022-11-18T04:04:55;91792.53;;;8.18;100.00
6198;BME280;3132;42.622;23.328;2022-11-18T04:07:38;91792.50;;;8.37;100.00
6198;BME280;3132;42.622;23.328;2022-11-18T04:10:32;91774.91;;;8.48;100.00
6198;BME280;3132;42.622;23.328;2022-11-18T04:13:22;91789.84;;;8.24;100.00
6198;BME280;3132;42.622;23.328;2022-11-18T04:15:48;91785.84;;;8.31;100.00
6198;BME280;3132;42.622;23.328;2022-11-18T04:18:14;91793.38;;;8.33;100.00
6198;BME280;3132;42.622;23.328;2022-11-18T04:20:39;91792.31;;;8.34;100.00
6198;BME280;3132;42.622;23.328;2022-11-18T04:23:05;91800.31;;;8.18;100.00
6198;BME280;3132;42.622;23.328;2022-11-18T04:25:31;91793.44;;;8.09;100.00
6198;BME280;3132;42.622;23.328;2022-11-18T04:27:56;91793.91;;;8.11;100.00
6198;BME280;3132;42.622;23.328;2022-11-18T04:30:22;91792.88;;;7.93;100.00
6198;BME280;3132;42.622;23.328;2022-11-18T04:32:47;91806.84;;;7.97;100.00
6198;BME280;3132;42.622;23.328;2022-11-18T04:35:14;91810.66;;;7.86;100.00
6198;BME280;3132;42.622;23.328;2022-11-18T04:37:39;91811.94;;;7.89;100.00
6198;BME280;3132;42.622;23.328;2022-11-18T04:40:06;91799.56;;;7.99;100.00
6198;BME280;3132;42.622;23.328;2022-11-18T04:42:32;91806.16;;;8.10;100.00
6198;BME280;3132;42.622;23.328;2022-11-18T04:44:57;91802.66;;;8.01;100.00
6198;BME280;3132;42.622;23.328;2022-11-18T04:47:22;91815.50;;;7.74;100.00
6198;BME280;3132;42.622;23.328;2022-11-18T04:49:48;91787.88;;;7.78;100.00
6198;BME280;3132;42.622;23.328;2022-11-18T04:52:14;91812.34;;;7.96;100.00
6198;BME280;3132;42.622;23.328;2022-11-18T04:54:39;91819.00;;;8.02;100.00
6198;BME280;3132;42.622;23.328;2022-11-18T04:57:04;91792.13;;;7.74;100.00
6198;BME280;3132;42.622;23.328;2022-11-18T04:59:30;91836.16;;;8.03;100.00
6198;BME280;3132;42.622;23.328;2022-11-18T05:01:56;91819.63;;;8.12;100.00
6198;BME280;3132;42.622;23.328;2022-11-18T05:04:24;91812.28;;;8.52;100.00
6198;BME280;3132;42.622;23.328;2022-11-18T05:06:50;91817.97;;;8.54;100.00
6198;BME280;3132;42.622;23.328;2022-11-18T05:09:16;91810.44;;;8.39;100.00
6198;BME280;3132;42.622;23.328;2022-11-18T05:11:42;91821.19;;;8.32;100.00
6198;BME280;3132;42.622;23.328;2022-11-18T05:14:28;91805.88;;;8.31;100.00
6198;BME280;3132;42.622;23.328;2022-11-18T05:16:55;91801.13;;;8.14;100.00
6198;BME280;3132;42.622;23.328;2022-11-18T05:19:20;91824.16;;;8.26;100.00
6198;BME280;3132;42.622;23.328;2022-11-18T05:21:46;91797.91;;;8.03;100.00
6198;BME280;3132;42.622;23.328;2022-11-18T05:24:11;91819.56;;;8.17;100.00
6198;BME280;3132;42.622;23.328;2022-11-18T05:26:37;91814.31;;;7.85;100.00
6198;BME280;3132;42.622;23.328;2022-11-18T05:29:02;91807.06;;;7.82;100.00
6198;BME280;3132;42.622;23.328;2022-11-18T05:31:27;91822.66;;;8.01;100.00
6198;BME280;3132;42.622;23.328;2022-11-18T05:33:53;91825.09;;;7.92;100.00
6198;BME280;3132;42.622;23.328;2022-11-18T05:36:19;91799.84;;;7.79;100.00
6198;BME280;3132;42.622;23.328;2022-11-18T05:38:45;91809.72;;;7.77;100.00
6198;BME280;3132;42.622;23.328;2022-11-18T05:41:11;91804.53;;;7.96;100.00
6198;BME280;3132;42.622;23.328;2022-11-18T05:44:00;91813.75;;;8.26;100.00
6198;BME280;3132;42.622;23.328;2022-11-18T05:46:26;91824.28;;;8.34;100.00
6198;BME280;3132;42.622;23.328;2022-11-18T05:48:51;91836.22;;;8.35;100.00
6198;BME280;3132;42.622;23.328;2022-11-18T05:51:17;91819.06;;;8.53;100.00
6198;BME280;3132;42.622;23.328;2022-11-18T05:53:42;91811.47;;;8.38;100.00
6198;BME280;3132;42.622;23.328;2022-11-18T05:56:20;91812.03;;;8.35;100.00
6198;BME280;3132;42.622;23.328;2022-11-18T05:58:46;91816.66;;;8.38;100.00
6198;BME280;3132;42.622;23.328;2022-11-18T06:01:19;91819.66;;;8.31;100.00
6198;BME280;3132;42.622;23.328;2022-11-18T06:03:45;91778.88;;;8.27;100.00
6198;BME280;3132;42.622;23.328;2022-11-18T06:06:12;91823.34;;;8.44;100.00
6198;BME280;3132;42.622;23.328;2022-11-18T06:08:46;91811.91;;;8.58;100.00
6198;BME280;3132;42.622;23.328;2022-11-18T06:11:15;91809.69;;;8.84;100.00
6198;BME280;3132;42.622;23.328;2022-11-18T06:13:47;91797.56;;;8.61;100.00
6198;BME280;3132;42.622;23.328;2022-11-18T06:16:17;91796.75;;;8.92;100.00
6198;BME280;3132;42.622;23.328;2022-11-18T06:18:43;91793.41;;;8.92;100.00
6198;BME280;3132;42.622;23.328;2022-11-18T06:21:08;91814.97;;;8.92;100.00
6198;BME280;3132;42.622;23.328;2022-11-18T06:23:35;91790.13;;;9.27;100.00
6198;BME280;3132;42.622;23.328;2022-11-18T06:26:01;91786.13;;;8.89;100.00
6198;BME280;3132;42.622;23.328;2022-11-18T06:28:27;91798.50;;;8.97;100.00
6198;BME280;3132;42.622;23.328;2022-11-18T06:30:53;91759.75;;;8.82;100.00
6198;BME280;3132;42.622;23.328;2022-11-18T06:33:19;91774.19;;;9.42;100.00
6198;BME280;3132;42.622;23.328;2022-11-18T06:35:44;91792.34;;;9.47;100.00
6198;BME280;3132;42.622;23.328;2022-11-18T06:38:09;91804.88;;;9.18;100.00
6198;BME280;3132;42.622;23.328;2022-11-18T06:40:35;91779.81;;;9.22;100.00
6198;BME280;3132;42.622;23.328;2022-11-18T06:43:06;91807.78;;;9.57;100.00
6198;BME280;3132;42.622;23.328;2022-11-18T06:45:50;91797.94;;;9.54;100.00
6198;BME280;3132;42.622;23.328;2022-11-18T06:48:34;91788.59;;;9.89;100.00
6198;BME280;3132;42.622;23.328;2022-11-18T06:50:59;91795.41;;;9.98;100.00
6198;BME280;3132;42.622;23.328;2022-11-18T06:53:24;91805.91;;;10.20;100.00
6198;BME280;3132;42.622;23.328;2022-11-18T06:55:50;91802.84;;;10.62;100.00
6198;BME280;3132;42.622;23.328;2022-11-18T06:58:15;91823.13;;;10.43;100.00
6198;BME280;3132;42.622;23.328;2022-11-18T07:00:40;91779.38;;;10.05;100.00
6198;BME280;3132;42.622;23.328;2022-11-18T07:03:06;91814.34;;;10.39;100.00
6198;BME280;3132;42.622;23.328;2022-11-18T07:05:31;91837.44;;;10.32;100.00
6198;BME280;3132;42.622;23.328;2022-11-18T07:07:56;91826.59;;;10.03;100.00
6198;BME280;3132;42.622;23.328;2022-11-18T07:10:22;91826.84;;;10.51;100.00
6198;BME280;3132;42.622;23.328;2022-11-18T07:12:47;91808.66;;;10.59;100.00
6198;BME280;3132;42.622;23.328;2022-11-18T07:15:12;91826.31;;;10.84;100.00
6198;BME280;3132;42.622;23.328;2022-11-18T07:17:38;91817.91;;;10.65;100.00
6198;BME280;3132;42.622;23.328;2022-11-18T07:20:03;91816.69;;;10.71;100.00
6198;BME280;3132;42.622;23.328;2022-11-18T07:22:29;91799.94;;;10.94;100.00
6198;BME280;3132;42.622;23.328;2022-11-18T07:24:54;91790.34;;;11.12;100.00
6198;BME280;3132;42.622;23.328;2022-11-18T07:27:19;91773.88;;;11.03;100.00
6198;BME280;3132;42.622;23.328;2022-11-18T07:29:45;91788.69;;;10.85;100.00
6198;BME280;3132;42.622;23.328;2022-11-18T07:32:10;91783.44;;;10.77;100.00
6198;BME280;3132;42.622;23.328;2022-11-18T07:34:35;91767.50;;;10.56;100.00
6198;BME280;3132;42.622;23.328;2022-11-18T07:37:01;91767.72;;;10.46;100.00
6198;BME280;3132;42.622;23.328;2022-11-18T07:39:26;91749.22;;;10.12;100.00
6198;BME280;3132;42.622;23.328;2022-11-18T07:41:51;91774.19;;;10.49;100.00
6198;BME280;3132;42.622;23.328;2022-11-18T07:44:17;91765.88;;;10.69;100.00
6198;BME280;3132;42.622;23.328;2022-11-18T07:46:42;91762.28;;;10.56;100.00
6198;BME280;3132;42.622;23.328;2022-11-18T07:49:09;91779.97;;;10.68;100.00
6198;BME280;3132;42.622;23.328;2022-11-18T07:51:37;91765.75;;;11.04;100.00
6198;BME280;3132;42.622;23.328;2022-11-18T07:54:13;91752.25;;;10.80;100.00
6198;BME280;3132;42.622;23.328;2022-11-18T07:56:40;91795.78;;;10.63;100.00
6198;BME280;3132;42.622;23.328;2022-11-18T07:59:06;91819.06;;;10.15;100.00
6198;BME280;3132;42.622;23.328;2022-11-18T08:01:31;91811.53;;;10.00;100.00
6198;BME280;3132;42.622;23.328;2022-11-18T08:04:03;91808.44;;;9.98;100.00
6198;BME280;3132;42.622;23.328;2022-11-18T08:06:31;91815.44;;;9.89;100.00
6198;BME280;3132;42.622;23.328;2022-11-18T08:08:56;91830.66;;;10.09;100.00
6198;BME280;3132;42.622;23.328;2022-11-18T08:11:22;91853.00;;;10.37;100.00
6198;BME280;3132;42.622;23.328;2022-11-18T08:13:47;91843.56;;;10.28;100.00
6198;BME280;3132;42.622;23.328;2022-11-18T08:16:15;91830.47;;;10.41;100.00
6198;BME280;3132;42.622;23.328;2022-11-18T08:18:40;91818.25;;;10.28;100.00
6198;BME280;3132;42.622;23.328;2022-11-18T08:21:06;91812.63;;;10.35;100.00
6198;BME280;3132;42.622;23.328;2022-11-18T08:23:31;91785.22;;;9.88;100.00
6198;BME280;3132;42.622;23.328;2022-11-18T08:26:06;91803.53;;;9.97;100.00
6198;BME280;3132;42.622;23.328;2022-11-18T08:28:32;91804.66;;;10.40;100.00
6198;BME280;3132;42.622;23.328;2022-11-18T08:30:57;91801.84;;;10.80;100.00
6198;BME280;3132;42.622;23.328;2022-11-18T08:33:23;91789.75;;;10.84;100.00
6198;BME280;3132;42.622;23.328;2022-11-18T08:35:48;91782.06;;;10.79;100.00
6198;BME280;3132;42.622;23.328;2022-11-18T08:38:13;91776.97;;;11.13;100.00
6198;BME280;3132;42.622;23.328;2022-11-18T08:40:44;91799.09;;;11.55;100.00
6198;BME280;3132;42.622;23.328;2022-11-18T08:43:10;91793.25;;;11.58;100.00
6198;BME280;3132;42.622;23.328;2022-11-18T08:45:37;91738.94;;;11.38;100.00
6198;BME280;3132;42.622;23.328;2022-11-18T08:48:02;91785.66;;;11.79;100.00
6198;BME280;3132;42.622;23.328;2022-11-18T08:50:28;91773.22;;;11.84;100.00
6198;BME280;3132;42.622;23.328;2022-11-18T08:52:53;91764.16;;;11.90;100.00
6198;BME280;3132;42.622;23.328;2022-11-18T08:55:18;91759.66;;;11.91;100.00
6198;BME280;3132;42.622;23.328;2022-11-18T08:57:44;91720.13;;;11.84;100.00
6198;BME280;3132;42.622;23.328;2022-11-18T09:00:10;91743.38;;;11.85;100.00
6198;BME280;3132;42.622;23.328;2022-11-18T09:02:36;91735.50;;;11.68;100.00
6198;BME280;3132;42.622;23.328;2022-11-18T09:05:01;91734.44;;;11.78;100.00
6198;BME280;3132;42.622;23.328;2022-11-18T09:07:27;91722.44;;;12.19;100.00
6198;BME280;3132;42.622;23.328;2022-11-18T09:09:52;91737.91;;;11.56;100.00
6198;BME280;3132;42.622;23.328;2022-11-18T09:12:17;91721.38;;;12.12;100.00
6198;BME280;3132;42.622;23.328;2022-11-18T09:14:43;91718.13;;;12.15;100.00
6198;BME280;3132;42.622;23.328;2022-11-18T09:17:09;91727.06;;;12.14;100.00
6198;BME280;3132;42.622;23.328;2022-11-18T09:19:36;91714.09;;;12.34;100.00
6198;BME280;3132;42.622;23.328;2022-11-18T09:22:02;91719.97;;;12.94;97.94
6198;BME280;3132;42.622;23.328;2022-11-18T09:24:28;91696.03;;;12.58;96.88
6198;BME280;3132;42.622;23.328;2022-11-18T09:26:53;91715.47;;;12.57;97.25
6198;BME280;3132;42.622;23.328;2022-11-18T09:29:19;91687.34;;;12.75;97.95
6198;BME280;3132;42.622;23.328;2022-11-18T09:31:49;91717.34;;;13.03;92.64
6198;BME280;3132;42.622;23.328;2022-11-18T09:34:14;91717.25;;;13.20;90.56
6198;BME280;3132;42.622;23.328;2022-11-18T09:36:40;91703.16;;;12.95;90.19
6198;BME280;3132;42.622;23.328;2022-11-18T09:39:05;91718.88;;;12.41;95.88
6198;BME280;3132;42.622;23.328;2022-11-18T09:41:44;91710.75;;;12.88;92.62
6198;BME280;3132;42.622;23.328;2022-11-18T09:49:41;91670.69;;;12.88;88.19
6198;BME280;3132;42.622;23.328;2022-11-18T09:52:27;91669.19;;;12.78;88.70
6198;BME280;3132;42.622;23.328;2022-11-18T09:54:54;91663.03;;;12.74;89.70
6198;BME280;3132;42.622;23.328;2022-11-18T09:57:23;91664.97;;;12.86;88.47
6198;BME280;3132;42.622;23.328;2022-11-18T09:59:50;91625.75;;;12.77;87.23
6198;BME280;3132;42.622;23.328;2022-11-18T10:02:28;91653.94;;;13.18;87.00
6198;BME280;3132;42.622;23.328;2022-11-18T10:04:57;91668.63;;;13.31;86.40
6198;BME280;3132;42.622;23.328;2022-11-18T10:07:36;91675.38;;;13.41;88.36
6198;BME280;3132;42.622;23.328;2022-11-18T10:10:14;91680.25;;;13.51;88.55
6198;BME280;3132;42.622;23.328;2022-11-18T10:12:47;91664.28;;;13.64;85.08
6198;BME280;3132;42.622;23.328;2022-11-18T10:15:35;91687.22;;;13.67;85.85
6198;BME280;3132;42.622;23.328;2022-11-18T10:18:11;91679.03;;;13.48;85.30
6198;BME280;3132;42.622;23.328;2022-11-18T10:21:01;91661.19;;;13.62;85.55
6198;BME280;3132;42.622;23.328;2022-11-18T10:23:35;91658.84;;;13.69;85.05
6198;BME280;3132;42.622;23.328;2022-11-18T10:26:04;91641.31;;;13.61;83.21
6198;BME280;3132;42.622;23.328;2022-11-18T10:28:29;91647.94;;;13.59;83.12
6198;BME280;3132;42.622;23.328;2022-11-18T10:31:06;91629.91;;;13.37;85.74
6198;BME280;3132;42.622;23.328;2022-11-18T10:33:32;91645.97;;;13.35;85.63
6198;BME280;3132;42.622;23.328;2022-11-18T10:39:04;91625.38;;;13.66;83.82
6198;BME280;3132;42.622;23.328;2022-11-18T10:41:37;91635.47;;;13.56;84.46
6198;BME280;3132;42.622;23.328;2022-11-18T10:44:03;91632.66;;;13.40;85.59
6198;BME280;3132;42.622;23.328;2022-11-18T10:46:35;91615.13;;;13.73;82.93
6198;BME280;3132;42.622;23.328;2022-11-18T10:51:40;91620.59;;;14.66;79.88
6198;BME280;3132;42.622;23.328;2022-11-18T10:54:20;91613.75;;;14.41;79.79
6198;BME280;3132;42.622;23.328;2022-11-18T10:59:27;91599.00;;;14.61;77.68
6198;BME280;3132;42.622;23.328;2022-11-18T11:04:46;91583.44;;;14.31;78.98
6198;BME280;3132;42.622;23.328;2022-11-18T11:10:19;91595.63;;;15.20;74.07
6198;BME280;3132;42.622;23.328;2022-11-18T11:13:11;91622.22;;;14.71;76.17
6198;BME280;3132;42.622;23.328;2022-11-18T11:15:45;91596.63;;;15.16;74.75
6198;BME280;3132;42.622;23.328;2022-11-18T11:18:17;91591.31;;;15.52;71.73
6198;BME280;3132;42.622;23.328;2022-11-18T11:21:13;91592.97;;;15.08;75.32
6198;BME280;3132;42.622;23.328;2022-11-18T11:23:41;91606.19;;;15.60;74.04
6198;BME280;3132;42.622;23.328;2022-11-18T11:29:28;91606.22;;;15.36;76.14
6198;BME280;3132;42.622;23.328;2022-11-18T11:37:46;91581.06;;;15.74;74.73
6198;BME280;3132;42.622;23.328;2022-11-18T11:40:49;91571.13;;;15.56;73.33
6198;BME280;3132;42.622;23.328;2022-11-18T11:53:56;91574.03;;;15.15;75.07
6198;BME280;3132;42.622;23.328;2022-11-18T12:04:47;91566.28;;;14.13;81.04
6198;BME280;3132;42.622;23.328;2022-11-18T12:07:32;91571.81;;;14.32;79.85
6198;BME280;3132;42.622;23.328;2022-11-18T12:10:28;91565.94;;;14.47;74.00
6198;BME280;3132;42.622;23.328;2022-11-18T12:13:09;91571.75;;;14.65;69.09
6198;BME280;3132;42.622;23.328;2022-11-18T12:16:06;91556.63;;;15.10;67.22
6198;BME280;3132;42.622;23.328;2022-11-18T12:26:48;91541.31;;;15.00;73.72
6198;BME280;3132;42.622;23.328;2022-11-18T12:31:42;91529.50;;;14.82;72.64
6198;BME280;3132;42.622;23.328;2022-11-18T12:34:35;91551.06;;;15.00;71.92
6198;BME280;3132;42.622;23.328;2022-11-18T12:42:42;91539.47;;;14.77;69.08
6198;BME280;3132;42.622;23.328;2022-11-18T12:50:54;91518.59;;;15.20;64.05
6198;BME280;3132;42.622;23.328;2022-11-18T12:55:57;91505.69;;;15.15;66.76
6198;BME280;3132;42.622;23.328;2022-11-18T12:58:23;91480.22;;;14.79;67.19
6198;BME280;3132;42.622;23.328;2022-11-18T13:00:49;91477.72;;;14.83;68.15
6198;BME280;3132;42.622;23.328;2022-11-18T13:03:23;91504.63;;;14.92;68.61
6198;BME280;3132;42.622;23.328;2022-11-18T13:05:50;91529.78;;;15.17;65.78
6198;BME280;3132;42.622;23.328;2022-11-18T13:08:22;91484.72;;;15.30;68.57
6198;BME280;3132;42.622;23.328;2022-11-18T13:10:52;91470.91;;;14.94;71.70
6198;BME280;3132;42.622;23.328;2022-11-18T13:13:38;91459.88;;;14.76;67.57
6198;BME280;3132;42.622;23.328;2022-11-18T13:16:22;91469.69;;;14.91;67.69
6198;BME280;3132;42.622;23.328;2022-11-18T13:19:07;91465.22;;;14.92;67.79
6198;BME280;3132;42.622;23.328;2022-11-18T13:21:36;91470.91;;;14.94;66.20
6198;BME280;3132;42.622;23.328;2022-11-18T13:24:21;91485.13;;;15.05;65.10
6198;BME280;3132;42.622;23.328;2022-11-18T13:26:52;91489.91;;;15.15;65.28
6198;BME280;3132;42.622;23.328;2022-11-18T13:37:22;91450.53;;;15.03;66.26
6198;BME280;3132;42.622;23.328;2022-11-18T13:39:48;91423.09;;;15.16;66.05
6198;BME280;3132;42.622;23.328;2022-11-18T13:42:43;91438.22;;;15.07;65.72
6198;BME280;3132;42.622;23.328;2022-11-18T13:45:12;91442.50;;;15.11;65.38
6198;BME280;3132;42.622;23.328;2022-11-18T13:52:58;91431.31;;;15.14;64.26
6198;BME280;3132;42.622;23.328;2022-11-18T13:55:28;91457.94;;;15.13;66.40
6198;BME280;3132;42.622;23.328;2022-11-18T13:58:02;91435.31;;;15.24;65.41
6198;BME280;3132;42.622;23.328;2022-11-18T14:00:31;91431.28;;;15.26;65.03
6198;BME280;3132;42.622;23.328;2022-11-18T14:03:01;91427.19;;;15.01;66.18
6198;BME280;3132;42.622;23.328;2022-11-18T14:05:27;91406.84;;;15.26;63.53
6198;BME280;3132;42.622;23.328;2022-11-18T14:08:17;91418.41;;;15.37;63.40
6198;BME280;3132;42.622;23.328;2022-11-18T14:10:44;91417.19;;;15.46;62.91
6198;BME280;3132;42.622;23.328;2022-11-18T14:15:57;91438.22;;;15.07;66.47
6198;BME280;3132;42.622;23.328;2022-11-18T14:20:52;91446.88;;;15.35;64.28
6198;BME280;3132;42.622;23.328;2022-11-18T14:23:24;91448.34;;;15.32;64.90
6198;BME280;3132;42.622;23.328;2022-11-18T14:25:50;91440.16;;;15.22;64.86
6198;BME280;3132;42.622;23.328;2022-11-18T14:28:19;91405.50;;;15.32;64.23
6198;BME280;3132;42.622;23.328;2022-11-18T14:34:02;91458.91;;;15.08;65.63
6198;BME280;3132;42.622;23.328;2022-11-18T14:36:26;91444.13;;;15.16;64.28
6198;BME280;3132;42.622;23.328;2022-11-18T14:38:52;91401.69;;;15.29;63.58
6198;BME280;3132;42.622;23.328;2022-11-18T14:41:19;91463.59;;;15.27;63.32
6198;BME280;3132;42.622;23.328;2022-11-18T14:44:04;91465.56;;;15.18;64.71
6198;BME280;3132;42.622;23.328;2022-11-18T14:46:30;91430.66;;;15.17;64.05
6198;BME280;3132;42.622;23.328;2022-11-18T14:48:56;91439.34;;;15.06;65.83
6198;BME280;3132;42.622;23.328;2022-11-18T14:51:22;91446.22;;;15.10;65.46
6198;BME280;3132;42.622;23.328;2022-11-18T14:53:47;91453.88;;;15.15;65.78
6198;BME280;3132;42.622;23.328;2022-11-18T14:56:29;91463.38;;;14.92;68.83
6198;BME280;3132;42.622;23.328;2022-11-18T14:58:54;91458.78;;;14.77;71.38
6198;BME280;3132;42.622;23.328;2022-11-18T15:01:20;91459.38;;;14.46;74.97
6198;BME280;3132;42.622;23.328;2022-11-18T15:03:46;91462.84;;;14.14;77.77
6198;BME280;3132;42.622;23.328;2022-11-18T15:06:16;91455.81;;;13.82;83.50
6198;BME280;3132;42.622;23.328;2022-11-18T15:08:44;91461.88;;;13.62;84.33